Landes Station, West Virginia
Current Conditions -  °F | °C
As of 10:30 AM on Friday 19 Dec 2014 (Local Time) from KW99 Reporting Station
Overcast Overcast  
Wind Chill: 28°   Ceiling: 2800
Heat Index: 34°   Visibility: 10mi
Dew Point: 21°   Wind: 6mph
Humidity: 60%   Direction: 30°NNE
Pressure: 30.2"   Gusts: NA
Location:  38.9337°N, 79.1435°W
Report Text: KW99 191530Z AUTO 03005KT 10SM OVC028 01/M06 A3020 RMK AO2 T00091060
Loading
Personal Weather Stations






























Interactive Weather Map New forecast layout! Learn more

10-Day Weather Forecast

Advertisements
Track Severe Weather on mobile